Time;durP1;ratioP1;P1;durP2;ratioP2;P2;SDS_P1;SDS_P2;PMS_P1;PMS_P2;Temp;Humidity;BMP_temperature;BMP_pressure;BME280_temperature;BME280_humidity;BME280_pressure;Samples;Min_cycle;Max_cycle;Signal;HPM_P1;HPM_P2
2023/06/12 00:01:20;;;;;;;5.40;3.87;;;;;;;20.13;52.76;97878.31;5054139;28;20205;-72
2023/06/12 00:03:47;;;;;;;5.07;3.93;;;;;;;20.05;54.26;97873.47;5053685;28;20614;-72
2023/06/12 00:06:15;;;;;;;3.97;3.57;;;;;;;19.95;54.25;97878.97;5054007;28;20221;-72
2023/06/12 00:08:42;;;;;;;3.90;3.70;;;;;;;19.87;54.19;97880.38;5053996;28;20212;-72
2023/06/12 00:11:12;;;;;;;4.63;4.23;;;;;;;19.80;55.37;97884.50;5053926;28;20217;-72
2023/06/12 00:13:40;;;;;;;5.80;3.70;;;;;;;19.65;55.72;97877.31;5053583;28;20614;-72
2023/06/12 00:16:06;;;;;;;4.53;4.13;;;;;;;19.58;56.60;97883.03;5053708;28;20233;-72
2023/06/12 00:18:32;;;;;;;4.13;3.80;;;;;;;19.50;57.48;97882.81;5053901;28;20215;-72
2023/06/12 00:20:59;;;;;;;4.17;3.87;;;;;;;19.41;58.62;97879.91;5053835;28;20221;-72
2023/06/12 00:23:25;;;;;;;4.47;4.07;;;;;;;19.28;59.17;97879.72;5053483;28;20219;-72
2023/06/12 00:25:52;;;;;;;4.63;4.23;;;;;;;19.37;57.18;97880.75;5053382;28;20228;-72
2023/06/12 00:28:18;;;;;;;4.60;4.00;;;;;;;19.38;58.42;97876.97;5053727;28;20201;-72
2023/06/12 00:30:44;;;;;;;4.50;4.13;;;;;;;19.36;57.82;97879.94;5053871;28;20578;-72
2023/06/12 00:33:11;;;;;;;4.83;4.30;;;;;;;19.31;57.07;97874.56;5053325;28;20687;-72
2023/06/12 00:35:37;;;;;;;4.73;4.43;;;;;;;19.20;58.04;97872.19;5053200;28;20228;-73
2023/06/12 00:38:03;;;;;;;4.33;4.03;;;;;;;19.16;59.45;97873.81;5054103;28;20209;-73
2023/06/12 00:40:30;;;;;;;4.83;4.30;;;;;;;19.08;61.75;97879.78;5052709;28;20542;-73
2023/06/12 00:42:56;;;;;;;4.33;3.90;;;;;;;18.92;61.83;97881.75;5053575;28;20228;-73
2023/06/12 00:45:22;;;;;;;4.90;4.50;;;;;;;18.78;62.50;97888.81;5053467;28;20201;-73
2023/06/12 00:47:52;;;;;;;4.70;4.30;;;;;;;18.76;65.29;97887.47;5053533;28;20205;-73
2023/06/12 00:50:20;;;;;;;5.07;4.57;;;;;;;18.75;62.17;97878.59;5053501;28;20205;-73
2023/06/12 00:52:49;;;;;;;4.73;4.33;;;;;;;18.74;64.23;97884.25;5053402;28;20541;-73
2023/06/12 00:55:16;;;;;;;5.00;4.40;;;;;;;18.71;63.85;97879.41;5053234;28;20279;-73
2023/06/12 00:57:43;;;;;;;5.47;4.97;;;;;;;18.65;65.43;97886.72;5053140;28;20687;-73
2023/06/12 01:00:12;;;;;;;4.93;4.50;;;;;;;18.61;65.47;97885.66;5053081;28;20683;-72
2023/06/12 01:02:42;;;;;;;5.50;4.80;;;;;;;18.53;66.51;97886.22;5053331;28;20259;-72
2023/06/12 01:05:12;;;;;;;4.80;4.40;;;;;;;18.50;65.72;97884.06;5053035;28;20637;-72
2023/06/12 01:07:51;;;;;;;5.00;4.57;;;;;;;18.42;68.16;97881.13;5053244;28;20220;-72
2023/06/12 01:10:36;;;;;;;4.97;4.47;;;;;;;18.27;67.78;97881.91;5052913;28;20551;-72
2023/06/12 01:13:03;;;;;;;5.07;4.57;;;;;;;18.30;67.79;97883.25;5053272;28;20238;-72
2023/06/12 01:15:30;;;;;;;5.47;4.30;;;;;;;18.23;68.93;97882.75;5053036;28;20233;-72
2023/06/12 01:17:58;;;;;;;5.13;4.73;;;;;;;18.20;67.62;97880.59;5052885;28;20209;-72
2023/06/12 01:20:25;;;;;;;5.20;4.70;;;;;;;18.09;69.27;97882.47;5053753;28;20208;-72
2023/06/12 01:22:57;;;;;;;5.43;4.40;;;;;;;18.13;70.14;97878.16;5053004;28;20251;-72
2023/06/12 01:25:44;;;;;;;5.10;4.70;;;;;;;18.09;70.05;97874.41;5052560;28;20667;-72
2023/06/12 01:28:16;;;;;;;6.83;5.17;;;;;;;18.10;70.41;97884.09;5053057;28;20190;-72
2023/06/12 01:30:54;;;;;;;4.77;4.37;;;;;;;18.10;69.58;97880.59;5053098;28;20208;-72
2023/06/12 01:33:30;;;;;;;6.10;4.63;;;;;;;18.12;68.38;97886.50;5052024;28;20195;-72
2023/06/12 01:36:00;;;;;;;6.60;4.50;;;;;;;18.10;68.25;97884.09;5052939;28;20225;-72
2023/06/12 01:38:29;;;;;;;5.23;4.73;;;;;;;18.17;69.63;97879.25;5052651;28;20553;-72
2023/06/12 01:40:57;;;;;;;4.53;4.13;;;;;;;18.10;70.57;97873.31;5052668;28;20583;-72
2023/06/12 01:43:23;;;;;;;4.97;4.47;;;;;;;18.11;68.86;97876.84;5052938;28;20213;-72
2023/06/12 01:45:50;;;;;;;5.10;4.70;;;;;;;18.14;67.72;97874.41;5052852;28;20234;-72
2023/06/12 01:48:16;;;;;;;5.73;4.57;;;;;;;18.15;68.70;97885.97;5052568;28;20668;-72
2023/06/12 01:50:43;;;;;;;4.80;4.40;;;;;;;18.08;69.62;97878.19;5053208;28;20208;-72
2023/06/12 01:53:10;;;;;;;4.63;4.23;;;;;;;18.10;71.59;97878.69;5056171;28;20702;-72
2023/06/12 01:55:38;;;;;;;4.77;4.13;;;;;;;18.07;70.39;97873.06;5056375;28;20233;-72
2023/06/12 01:58:04;;;;;;;5.07;4.67;;;;;;;18.07;69.79;97873.88;5056494;28;20577;-72
2023/06/12 02:00:31;;;;;;;5.10;4.70;;;;;;;18.03;70.28;97878.19;5056377;28;20205;-72
2023/06/12 02:02:57;;;;;;;7.20;4.87;;;;;;;17.96;71.49;97871.47;5056365;28;20255;-72
2023/06/12 02:05:23;;;;;;;4.90;4.50;;;;;;;17.93;70.24;97874.69;5055820;28;20553;-72
2023/06/12 02:07:50;;;;;;;6.00;4.47;;;;;;;17.91;72.73;97868.78;5056261;28;20205;-72
2023/06/12 02:10:16;;;;;;;4.93;4.50;;;;;;;17.82;70.84;97871.19;5056743;28;20205;-72
2023/06/12 02:12:43;;;;;;;6.67;5.10;;;;;;;17.69;74.24;97881.69;5056208;28;20217;-72
2023/06/12 02:15:12;;;;;;;6.83;5.13;;;;;;;17.62;73.44;97876.56;5056109;28;20221;-72
2023/06/12 02:17:39;;;;;;;5.50;4.63;;;;;;;17.58;73.83;97886.25;5056076;28;20217;-72
2023/06/12 02:20:06;;;;;;;5.10;4.60;;;;;;;17.51;74.96;97874.16;5055710;28;20591;-73
2023/06/12 02:22:33;;;;;;;9.70;5.23;;;;;;;17.44;75.32;97878.97;5055614;28;20209;-73
2023/06/12 02:24:59;;;;;;;7.67;5.10;;;;;;;17.35;76.08;97881.34;5055709;28;20189;-73
2023/06/12 02:27:25;;;;;;;5.43;4.93;;;;;;;17.33;77.58;97888.06;5055520;28;20238;-73
2023/06/12 02:29:51;;;;;;;6.03;4.77;;;;;;;17.45;76.38;97886.75;5055930;28;20211;-72
2023/06/12 02:32:18;;;;;;;8.40;5.23;;;;;;;17.19;77.20;97879.69;5055840;28;20284;-72
2023/06/12 02:34:44;;;;;;;6.20;4.90;;;;;;;17.05;79.50;97875.88;5055600;28;20216;-72
2023/06/12 02:37:11;;;;;;;5.40;4.90;;;;;;;17.21;78.39;97877.56;5055676;28;20225;-72
2023/06/12 02:39:37;;;;;;;5.20;4.60;;;;;;;17.18;79.16;97875.38;5055547;28;20209;-72
2023/06/12 02:42:04;;;;;;;5.13;4.73;;;;;;;17.22;79.31;97872.97;5055487;28;20212;-72
2023/06/12 02:44:30;;;;;;;6.63;5.23;;;;;;;17.31;80.28;97877.56;5055441;28;20300;-72
2023/06/12 02:46:58;;;;;;;5.00;4.60;;;;;;;17.28;80.21;97880.78;5055067;28;20228;-72
2023/06/12 02:49:30;;;;;;;5.57;4.80;;;;;;;17.21;80.69;97877.56;5055478;28;20209;-72
2023/06/12 02:51:57;;;;;;;5.10;4.70;;;;;;;17.21;79.33;97866.81;5055203;28;20651;-72
2023/06/12 02:54:26;;;;;;;4.70;4.30;;;;;;;17.26;79.70;97882.94;5055400;28;20208;-72
2023/06/12 02:56:52;;;;;;;5.47;5.00;;;;;;;17.14;81.22;97886.94;5055210;28;20236;-72
2023/06/12 02:59:20;;;;;;;6.17;4.70;;;;;;;17.24;79.63;97878.91;5055019;28;20665;-72
2023/06/12 03:01:47;;;;;;;5.70;5.20;;;;;;;17.20;79.49;97883.97;5055286;28;20212;-72
2023/06/12 03:04:19;;;;;;;5.33;4.80;;;;;;;17.21;81.41;97879.44;5054610;28;20216;-72
2023/06/12 03:06:45;;;;;;;5.30;4.80;;;;;;;17.28;79.49;97875.41;5055328;28;20226;-72
2023/06/12 03:09:15;;;;;;;5.00;4.50;;;;;;;17.26;78.69;97871.38;5055068;28;20205;-72
2023/06/12 03:11:42;;;;;;;4.90;4.40;;;;;;;17.28;77.55;97880.00;5055012;28;20233;-72
2023/06/12 03:14:08;;;;;;;5.43;4.80;;;;;;;17.28;77.79;97880.00;5055011;28;20216;-72
2023/06/12 03:16:36;;;;;;;5.10;4.60;;;;;;;17.31;77.98;97891.00;5054834;28;20233;-72
2023/06/12 03:19:02;;;;;;;5.07;4.57;;;;;;;17.34;76.92;97893.19;5054606;28;20669;-72
2023/06/12 03:21:29;;;;;;;5.60;4.23;;;;;;;17.36;77.76;97893.69;5054769;28;20205;-72
2023/06/12 03:23:56;;;;;;;6.20;4.60;;;;;;;17.42;78.99;97898.03;5054583;28;20565;-72
2023/06/12 03:26:23;;;;;;;5.03;4.63;;;;;;;17.35;79.72;97892.09;5054742;28;20308;-72
2023/06/12 03:28:50;;;;;;;5.00;4.40;;;;;;;17.40;78.54;97894.81;5054620;28;20224;-72
2023/06/12 03:31:16;;;;;;;4.83;4.43;;;;;;;17.37;76.92;97895.31;5054826;28;20303;-72
2023/06/12 03:33:43;;;;;;;4.63;4.13;;;;;;;17.36;78.31;97898.25;5054496;28;20209;-73
2023/06/12 03:36:11;;;;;;;6.10;4.27;;;;;;;17.39;81.07;97892.38;5054197;28;20251;-72
2023/06/12 03:38:37;;;;;;;6.80;4.30;;;;;;;17.36;78.97;97898.25;5054307;28;20255;-72
2023/06/12 03:41:05;;;;;;;4.97;4.50;;;;;;;17.43;77.50;97896.16;5053916;28;20572;-72
2023/06/12 03:43:31;;;;;;;4.87;4.47;;;;;;;17.44;79.20;97900.47;5054243;28;20205;-72
2023/06/12 03:45:57;;;;;;;4.70;4.30;;;;;;;17.42;79.52;97895.34;5054242;28;20229;-72
2023/06/12 03:48:24;;;;;;;4.87;4.30;;;;;;;17.42;79.08;97902.63;5053601;28;20204;-72
2023/06/12 03:50:50;;;;;;;5.13;4.30;;;;;;;17.38;79.38;97901.50;5054226;28;20209;-72
2023/06/12 03:53:16;;;;;;;4.77;4.37;;;;;;;17.41;78.68;97907.19;5054204;28;20209;-72
2023/06/12 03:55:44;;;;;;;5.10;4.53;;;;;;;17.37;80.62;97905.28;5053976;28;20236;-72
2023/06/12 03:58:16;;;;;;;4.30;4.00;;;;;;;17.34;81.60;97919.22;5054098;28;20201;-72
2023/06/12 04:00:43;;;;;;;4.73;4.23;;;;;;;17.38;81.13;97921.09;5053892;28;20644;-73
2023/06/12 04:03:09;;;;;;;5.07;4.67;;;;;;;17.39;80.41;97922.78;5054014;28;20201;-72
2023/06/12 04:05:37;;;;;;;6.20;4.73;;;;;;;17.37;79.67;97924.09;5053768;28;20232;-72
2023/06/12 04:08:03;;;;;;;6.13;4.53;;;;;;;17.35;82.55;97926.22;5053535;28;20584;-72
2023/06/12 04:10:32;;;;;;;5.17;4.13;;;;;;;17.31;81.57;97928.63;5053883;28;20209;-72
2023/06/12 04:12:59;;;;;;;5.30;4.80;;;;;;;17.22;82.14;97927.53;5053810;28;20201;-72
2023/06/12 04:15:26;;;;;;;5.20;4.70;;;;;;;17.22;83.48;97915.97;5052876;28;20232;-72
2023/06/12 04:17:53;;;;;;;5.30;4.90;;;;;;;17.24;84.20;97927.25;5053435;28;20687;-72
2023/06/12 04:20:19;;;;;;;5.30;4.80;;;;;;;17.28;83.50;97931.03;5053562;28;20213;-72
2023/06/12 04:22:47;;;;;;;5.93;5.37;;;;;;;17.26;83.70;97931.31;5053510;28;20263;-72
2023/06/12 04:25:14;;;;;;;7.93;5.43;;;;;;;17.35;83.32;97931.59;5053222;28;20595;-72
2023/06/12 04:27:42;;;;;;;6.87;5.30;;;;;;;17.36;83.16;97939.38;5053548;28;20255;-72
2023/06/12 04:30:10;;;;;;;7.47;5.20;;;;;;;17.43;83.90;97929.25;5053239;28;20196;-72
2023/06/12 04:32:37;;;;;;;5.50;5.10;;;;;;;17.52;81.46;97930.34;5053226;28;20209;-72
2023/06/12 04:35:05;;;;;;;7.63;5.47;;;;;;;17.58;79.16;97931.13;5053170;28;20295;-72
2023/06/12 04:37:31;;;;;;;6.07;4.97;;;;;;;17.59;79.72;97938.13;5053021;28;20282;-72
2023/06/12 04:39:58;;;;;;;7.83;5.00;;;;;;;17.66;78.07;97936.00;5053115;28;20205;-72
2023/06/12 04:42:24;;;;;;;8.07;5.53;;;;;;;17.47;78.50;97948.31;5052566;28;20215;-72
2023/06/12 04:44:51;;;;;;;5.83;5.33;;;;;;;17.41;78.55;97950.19;5052970;28;20212;-72
2023/06/12 04:47:17;;;;;;;6.53;5.80;;;;;;;17.49;77.69;97952.34;5052922;28;20221;-72
2023/06/12 04:49:45;;;;;;;7.70;5.87;;;;;;;17.54;77.32;97954.22;5053079;28;20261;-72
2023/06/12 04:52:12;;;;;;;6.27;5.67;;;;;;;17.63;77.18;97956.16;5053197;28;20259;-72
2023/06/12 04:54:41;;;;;;;8.67;6.20;;;;;;;17.70;77.23;97954.03;5053094;28;20286;-72
2023/06/12 04:57:12;;;;;;;5.87;5.37;;;;;;;17.67;75.76;97954.53;5052503;28;20271;-72
2023/06/12 04:59:42;;;;;;;6.47;5.47;;;;;;;17.70;76.22;97958.59;5053160;28;20193;-72
2023/06/12 05:02:09;;;;;;;6.00;5.50;;;;;;;17.74;75.96;97952.38;5052882;28;20633;-72
2023/06/12 05:04:37;;;;;;;6.60;5.33;;;;;;;17.95;75.53;97956.72;5052730;28;20271;-72
2023/06/12 05:07:04;;;;;;;6.30;5.60;;;;;;;18.32;75.88;97964.56;5052432;28;20225;-72
2023/06/12 05:09:31;;;;;;;5.73;5.10;;;;;;;18.62;72.09;97964.53;5052993;28;20208;-73
2023/06/12 05:12:00;;;;;;;5.00;4.60;;;;;;;18.73;70.88;97963.44;5052760;28;20568;-72
2023/06/12 05:14:27;;;;;;;6.23;4.73;;;;;;;19.05;71.16;97959.28;5053003;28;20244;-72
2023/06/12 05:16:53;;;;;;;5.80;5.20;;;;;;;19.77;69.31;97962.19;5052622;28;20233;-72
2023/06/12 05:19:21;;;;;;;7.50;5.00;;;;;;;20.21;69.00;97964.09;5053975;28;20205;-73
2023/06/12 05:21:49;;;;;;;5.40;4.80;;;;;;;20.82;65.71;97965.94;5053785;28;20672;-73
2023/06/12 05:24:16;;;;;;;5.40;4.90;;;;;;;21.78;60.13;97966.41;5052400;28;20290;-73
2023/06/12 05:26:42;;;;;;;4.93;4.53;;;;;;;21.78;57.99;97963.69;5054717;28;20221;-73
2023/06/12 05:29:09;;;;;;;4.70;4.30;;;;;;;21.23;62.63;97971.72;5056509;28;20206;-74
2023/06/12 05:31:35;;;;;;;5.27;4.77;;;;;;;21.04;60.76;97974.38;5056486;28;20209;-73
2023/06/12 05:34:02;;;;;;;5.53;5.03;;;;;;;20.78;63.84;97970.28;5056658;28;20201;-73
2023/06/12 05:36:28;;;;;;;4.73;4.33;;;;;;;20.67;62.41;97973.38;5056277;28;20237;-73
2023/06/12 05:38:54;;;;;;;5.07;4.30;;;;;;;20.70;62.88;97973.59;5056316;28;20209;-73
2023/06/12 05:41:21;;;;;;;6.63;4.57;;;;;;;20.43;63.30;97980.63;5056425;28;20207;-73
2023/06/12 05:43:47;;;;;;;4.90;4.50;;;;;;;20.22;63.80;97979.19;5056115;28;20210;-73
2023/06/12 05:46:14;;;;;;;4.73;4.43;;;;;;;20.32;63.57;97979.09;5055991;28;20230;-73
2023/06/12 05:48:40;;;;;;;4.90;4.60;;;;;;;20.41;62.01;97977.41;5055240;28;20679;-73
2023/06/12 05:51:07;;;;;;;6.50;4.77;;;;;;;20.36;63.78;97972.88;5055943;28;20267;-73
2023/06/12 05:53:34;;;;;;;5.00;4.67;;;;;;;20.15;64.59;97982.19;5055626;28;20213;-73
2023/06/12 05:56:01;;;;;;;5.20;4.67;;;;;;;20.22;66.03;97973.78;5055955;28;20249;-73
2023/06/12 05:58:28;;;;;;;5.40;4.90;;;;;;;20.37;63.79;97973.66;5055891;28;20683;-73
2023/06/12 06:00:55;;;;;;;6.97;5.07;;;;;;;20.29;64.41;97975.06;5056142;28;20288;-73
2023/06/12 06:03:23;;;;;;;10.70;4.57;;;;;;;20.39;66.34;97974.97;5055528;28;20684;-73
2023/06/12 06:05:50;;;;;;;6.10;4.90;;;;;;;20.39;63.06;97966.09;5055860;28;20221;-73
2023/06/12 06:08:17;;;;;;;5.20;4.70;;;;;;;20.33;66.64;97975.31;5055592;28;20560;-73
2023/06/12 06:10:43;;;;;;;5.30;4.80;;;;;;;20.37;65.73;97968.25;5055632;28;20689;-73
2023/06/12 06:13:09;;;;;;;5.43;4.93;;;;;;;20.44;65.62;97968.75;5055880;28;20205;-73
2023/06/12 06:15:36;;;;;;;5.00;4.60;;;;;;;20.64;65.48;97977.47;5055611;28;20228;-73
2023/06/12 06:18:02;;;;;;;7.17;5.20;;;;;;;20.47;64.79;97973.56;5055685;28;20263;-73
2023/06/12 06:20:29;;;;;;;6.57;5.30;;;;;;;20.61;64.68;97979.94;5055788;28;20205;-73
2023/06/12 06:22:55;;;;;;;7.10;4.87;;;;;;;20.76;63.26;97972.47;5055374;28;20213;-73
2023/06/12 06:25:22;;;;;;;5.30;4.80;;;;;;;20.66;62.59;97975.25;5055479;28;20200;-73
2023/06/12 06:27:49;;;;;;;5.33;4.80;;;;;;;20.66;63.93;97982.59;5055372;28;20297;-73
2023/06/12 06:30:15;;;;;;;6.17;4.97;;;;;;;20.88;62.48;97981.00;5056022;28;20209;-73
2023/06/12 06:32:42;;;;;;;5.67;5.17;;;;;;;20.93;63.18;97980.97;5055357;28;20228;-73
2023/06/12 06:35:09;;;;;;;5.53;5.03;;;;;;;20.89;63.01;97981.81;5055344;28;20201;-73
2023/06/12 06:37:35;;;;;;;6.23;5.63;;;;;;;20.93;62.23;97972.06;5054058;28;20588;-73
2023/06/12 06:40:04;;;;;;;8.50;5.30;;;;;;;21.03;64.23;97971.94;5055316;28;20723;-73
2023/06/12 06:42:31;;;;;;;5.27;4.77;;;;;;;21.07;63.19;97978.41;5055468;28;20232;-73
2023/06/12 06:44:57;;;;;;;7.03;5.27;;;;;;;21.23;63.70;97977.13;5055194;28;20212;-73
2023/06/12 06:47:23;;;;;;;5.27;4.80;;;;;;;21.33;64.14;97976.97;5055127;28;20218;-73
2023/06/12 06:49:50;;;;;;;5.37;4.70;;;;;;;21.46;62.79;97974.38;5055354;28;20205;-73
2023/06/12 06:52:17;;;;;;;5.47;4.97;;;;;;;21.32;61.77;97976.19;5055027;28;20264;-73
2023/06/12 06:54:43;;;;;;;5.77;5.13;;;;;;;21.37;64.01;97969.91;5055087;28;20288;-73
2023/06/12 06:57:10;;;;;;;4.97;4.47;;;;;;;21.36;62.91;97979.13;5054652;28;20225;-73
2023/06/12 06:59:37;;;;;;;5.60;5.10;;;;;;;21.44;62.69;97975.78;5055221;28;20207;-73
2023/06/12 07:02:04;;;;;;;5.13;4.73;;;;;;;21.44;61.39;97973.06;5054630;28;20212;-73
2023/06/12 07:04:30;;;;;;;5.50;5.00;;;;;;;21.50;62.58;97977.31;5054929;28;20267;-72
2023/06/12 07:06:57;;;;;;;5.53;5.03;;;;;;;21.49;62.62;97971.13;5054769;28;20221;-72
2023/06/12 07:09:24;;;;;;;6.23;4.47;;;;;;;21.60;61.14;97975.28;5055050;28;20212;-73
2023/06/12 07:11:51;;;;;;;5.57;5.07;;;;;;;21.64;60.53;97968.19;5054860;28;20227;-73
2023/06/12 07:14:18;;;;;;;5.33;4.83;;;;;;;21.68;60.05;97974.63;5054396;28;20213;-73
2023/06/12 07:16:45;;;;;;;5.00;4.60;;;;;;;21.94;59.62;97973.22;5054523;28;20230;-73
2023/06/12 07:19:11;;;;;;;4.93;4.53;;;;;;;21.91;60.74;97967.56;5054570;28;20201;-73
2023/06/12 07:21:38;;;;;;;5.83;5.03;;;;;;;21.99;60.36;97972.31;5054754;28;20213;-73
2023/06/12 07:24:05;;;;;;;6.25;4.90;;;;;;;22.10;59.51;97971.88;5054349;28;20217;-73
2023/06/12 07:26:31;;;;;;;5.43;4.90;;;;;;;22.29;59.23;97964.53;5054186;28;20221;-73
2023/06/12 07:28:58;;;;;;;5.13;4.63;;;;;;;22.31;57.09;97970.47;5054081;28;20205;-73
2023/06/12 07:31:24;;;;;;;5.38;4.88;;;;;;;22.13;57.70;97971.28;5054297;28;20208;-73
2023/06/12 07:33:51;;;;;;;6.07;4.45;;;;;;;22.07;58.37;97972.44;5054191;28;20262;-73
2023/06/12 07:36:17;;;;;;;5.57;4.97;;;;;;;22.47;59.10;97974.53;5054289;28;20233;-73
2023/06/12 07:38:44;;;;;;;6.20;4.82;;;;;;;22.53;56.51;97969.84;5054081;28;20211;-73
2023/06/12 07:41:10;;;;;;;5.10;4.60;;;;;;;22.38;57.05;97973.56;5054460;28;20254;-73
2023/06/12 07:43:36;;;;;;;5.22;4.82;;;;;;;22.40;58.39;97976.00;5054071;28;20212;-73
2023/06/12 07:46:03;;;;;;;4.90;4.50;;;;;;;22.56;58.21;97967.34;5053815;28;20229;-73
2023/06/12 07:48:29;;;;;;;5.75;5.10;;;;;;;22.58;56.04;97969.75;5053791;28;20224;-73
2023/06/12 07:50:56;;;;;;;5.30;4.85;;;;;;;22.81;56.68;97966.09;5054488;28;20205;-73
2023/06/12 07:53:23;;;;;;;5.22;4.82;;;;;;;22.86;55.94;97965.97;5054207;28;20221;-73
2023/06/12 07:55:50;;;;;;;5.90;4.78;;;;;;;22.83;56.30;97964.69;5054167;28;20225;-73
2023/06/12 07:58:17;;;;;;;5.43;4.93;;;;;;;23.14;54.67;97964.91;5053944;28;20225;-73
2023/06/12 08:00:43;;;;;;;5.68;5.15;;;;;;;23.06;56.98;97960.97;5053912;28;20209;-73
2023/06/12 08:03:09;;;;;;;5.35;4.85;;;;;;;23.02;55.16;97957.25;5054412;28;20216;-73
2023/06/12 08:05:36;;;;;;;6.13;4.57;;;;;;;23.03;55.84;97958.88;5053693;28;20221;-73
2023/06/12 08:08:02;;;;;;;5.80;4.75;;;;;;;23.09;55.44;97959.56;5053576;28;20201;-73
2023/06/12 08:10:29;;;;;;;5.63;5.13;;;;;;;23.23;53.84;97963.13;5053772;28;20213;-73
2023/06/12 08:12:55;;;;;;;5.47;4.90;;;;;;;23.10;55.12;97948.44;5053638;28;20231;-73
2023/06/12 08:15:22;;;;;;;5.05;4.65;;;;;;;23.34;54.70;97950.97;5053606;28;20571;-73
2023/06/12 08:17:51;;;;;;;4.95;4.53;;;;;;;23.45;52.31;97945.03;5053581;28;20316;-73
2023/06/12 08:20:17;;;;;;;5.15;4.45;;;;;;;23.47;53.36;97940.09;5053645;28;20205;-76
2023/06/12 08:22:44;;;;;;;6.20;4.50;;;;;;;23.71;51.93;97948.81;5053865;28;20216;-76
2023/06/12 08:25:10;;;;;;;5.45;4.65;;;;;;;23.50;49.94;97947.63;5053319;28;20189;-76
2023/06/12 08:27:37;;;;;;;4.32;3.97;;;;;;;23.83;49.60;97945.56;5053474;28;20217;-75
2023/06/12 08:30:04;;;;;;;5.55;4.07;;;;;;;23.71;48.69;97946.09;5053026;28;20209;-76
2023/06/12 08:32:31;;;;;;;4.85;4.03;;;;;;;23.92;45.47;97951.88;5053345;28;20209;-75
2023/06/12 08:34:58;;;;;;;4.80;4.40;;;;;;;23.95;45.75;97951.25;5053551;28;20209;-75
2023/06/12 08:37:24;;;;;;;4.97;4.57;;;;;;;24.20;44.96;97945.22;5053303;28;20224;-75
2023/06/12 08:39:50;;;;;;;4.43;4.07;;;;;;;24.17;43.46;97941.22;5053416;28;20209;-75
2023/06/12 08:42:18;;;;;;;4.93;4.47;;;;;;;24.13;44.50;97937.50;5053374;28;20216;-76
2023/06/12 08:44:46;;;;;;;4.55;4.10;;;;;;;24.17;43.68;97945.84;5052908;28;20216;-75
2023/06/12 08:47:13;;;;;;;5.10;3.85;;;;;;;24.38;45.57;97952.38;5053201;28;20244;-76
2023/06/12 08:49:40;;;;;;;4.15;3.67;;;;;;;24.29;40.06;97943.38;5053199;28;20213;-73
2023/06/12 08:52:09;;;;;;;5.10;3.75;;;;;;;24.43;40.24;97944.09;5054072;28;20224;-73
2023/06/12 08:54:37;;;;;;;4.20;3.80;;;;;;;24.22;41.87;97943.00;5053275;28;20208;-73
2023/06/12 08:57:07;;;;;;;4.50;4.10;;;;;;;24.53;40.94;97950.09;5052597;28;20565;-73
2023/06/12 08:59:33;;;;;;;4.32;3.92;;;;;;;24.63;41.33;97936.25;5052911;28;20291;-73
2023/06/12 09:02:02;;;;;;;4.43;4.10;;;;;;;24.82;41.89;97942.28;5055919;28;20213;-73
2023/06/12 09:04:33;;;;;;;5.00;4.13;;;;;;;24.88;40.80;97932.84;5057284;28;20205;-73
2023/06/12 09:07:03;;;;;;;5.18;4.68;;;;;;;25.09;41.08;97930.38;5057163;28;20228;-73
2023/06/12 09:09:44;;;;;;;4.57;4.18;;;;;;;24.95;40.78;97935.13;5056061;28;20288;-73
2023/06/12 09:12:13;;;;;;;4.50;4.15;;;;;;;24.99;39.95;97939.63;5057227;28;20189;-73
2023/06/12 09:14:41;;;;;;;4.32;3.92;;;;;;;24.81;40.29;97932.50;5056944;28;20299;-73
2023/06/12 09:17:08;;;;;;;6.38;3.95;;;;;;;24.84;41.20;97931.91;5057008;28;20229;-73
2023/06/12 09:19:41;;;;;;;4.95;4.28;;;;;;;24.58;42.22;97932.84;5057116;28;20205;-73
2023/06/12 09:22:08;;;;;;;4.50;4.20;;;;;;;24.58;42.19;97925.50;5056645;28;20201;-73
2023/06/12 09:24:34;;;;;;;4.65;4.25;;;;;;;24.38;42.36;97934.16;5057150;28;20220;-72
2023/06/12 09:27:01;;;;;;;4.80;4.35;;;;;;;24.13;41.22;97933.97;5056293;28;20232;-73
2023/06/12 09:29:34;;;;;;;4.53;4.13;;;;;;;24.32;41.84;97938.13;5056447;28;20205;-73
2023/06/12 09:32:05;;;;;;;6.15;4.20;;;;;;;24.04;41.61;97930.41;5056567;28;20209;-73
2023/06/12 09:34:35;;;;;;;4.32;4.00;;;;;;;24.01;41.32;97931.03;5056827;28;20206;-73
2023/06/12 09:37:06;;;;;;;4.28;3.88;;;;;;;24.21;39.15;97930.53;5056232;28;20692;-72
2023/06/12 09:39:33;;;;;;;4.55;4.25;;;;;;;24.66;39.91;97929.41;5056384;28;20581;-72
2023/06/12 09:42:00;;;;;;;6.75;4.28;;;;;;;24.92;39.03;97930.31;5056379;28;20244;-72
2023/06/12 09:44:28;;;;;;;4.20;3.90;;;;;;;24.73;40.81;97925.13;5056199;28;20216;-72
2023/06/12 09:47:05;;;;;;;4.70;4.00;;;;;;;24.97;40.34;97927.47;5056238;28;20771;-72
2023/06/12 09:49:34;;;;;;;5.53;4.30;;;;;;;24.83;41.01;97938.44;5056278;28;20201;-72
2023/06/12 09:52:03;;;;;;;4.82;4.43;;;;;;;24.34;40.61;97932.38;5056287;28;20577;-72
2023/06/12 09:54:32;;;;;;;4.40;4.00;;;;;;;24.55;40.44;97928.00;5056294;28;20262;-72
2023/06/12 09:57:00;;;;;;;4.78;4.38;;;;;;;25.01;40.19;97923.00;5056090;28;20229;-72
2023/06/12 09:59:29;;;;;;;4.43;4.03;;;;;;;25.53;38.43;97916.59;5056084;28;20210;-72
2023/06/12 10:02:05;;;;;;;4.07;3.78;;;;;;;25.37;38.56;97923.63;5055995;28;20209;-72
2023/06/12 10:04:59;;;;;;;4.53;4.13;;;;;;;25.16;38.75;97933.44;5056385;28;20193;-72
2023/06/12 10:07:29;;;;;;;5.72;4.00;;;;;;;25.21;38.88;97917.78;5055372;28;20313;-72
2023/06/12 10:09:57;;;;;;;4.60;4.30;;;;;;;25.38;38.13;97917.06;5055913;28;20648;-72
2023/06/12 10:12:25;;;;;;;5.10;4.20;;;;;;;25.63;39.93;97921.72;5054449;28;20209;-73
2023/06/12 10:14:53;;;;;;;4.05;3.72;;;;;;;25.02;38.61;97936.25;5055511;28;20589;-73
2023/06/12 10:17:22;;;;;;;4.50;4.10;;;;;;;24.89;38.96;97911.91;5055306;28;20225;-73
2023/06/12 10:19:50;;;;;;;4.45;4.00;;;;;;;25.12;38.30;97910.72;5055567;28;20209;-73
2023/06/12 10:22:17;;;;;;;4.53;4.15;;;;;;;25.74;38.43;97920.31;5055402;28;20205;-72
2023/06/12 10:24:44;;;;;;;4.40;4.00;;;;;;;25.98;37.54;97910.56;5055258;28;20217;-72
2023/06/12 10:27:12;;;;;;;4.85;4.40;;;;;;;26.06;36.61;97915.19;5055167;28;20229;-73
2023/06/12 10:29:39;;;;;;;4.85;4.20;;;;;;;25.99;35.16;97903.19;5054276;28;20209;-73
2023/06/12 10:32:08;;;;;;;4.78;4.38;;;;;;;25.77;36.20;97897.84;5055423;28;20211;-73
2023/06/12 10:34:41;;;;;;;4.45;4.05;;;;;;;25.59;36.34;97907.94;5055208;28;20209;-73
2023/06/12 10:37:28;;;;;;;4.47;4.18;;;;;;;25.08;37.62;97912.44;5055238;28;20229;-73
2023/06/12 10:40:09;;;;;;;5.03;4.10;;;;;;;24.88;37.86;97904.88;5055126;28;20212;-73
2023/06/12 10:42:47;;;;;;;5.38;4.40;;;;;;;25.27;36.99;97902.13;5055152;28;20564;-73
2023/06/12 10:45:18;;;;;;;4.72;4.20;;;;;;;25.38;36.89;97889.84;5055633;28;20215;-73
2023/06/12 10:48:11;;;;;;;6.38;4.95;;;;;;;25.87;36.11;97892.13;5055162;28;20190;-74
2023/06/12 10:50:42;;;;;;;5.22;4.70;;;;;;;25.95;35.71;97894.03;5055109;28;20281;-73
2023/06/12 10:53:09;;;;;;;5.20;4.70;;;;;;;25.80;35.58;97897.22;5054784;28;20691;-74
2023/06/12 10:55:37;;;;;;;4.85;4.10;;;;;;;25.60;35.21;97885.03;5054933;28;20232;-73
2023/06/12 10:58:05;;;;;;;5.47;3.92;;;;;;;25.69;35.67;97880.41;5054445;28;20224;-73
2023/06/12 11:00:37;;;;;;;5.88;4.70;;;;;;;25.93;38.36;97875.31;5055048;28;20209;-73
2023/06/12 11:03:29;;;;;;;5.00;4.53;;;;;;;26.15;34.72;97869.66;5055115;28;20205;-74
2023/06/12 11:05:59;;;;;;;4.57;4.10;;;;;;;26.19;34.05;97886.19;5054189;28;20225;-71
2023/06/12 11:08:30;;;;;;;4.60;4.20;;;;;;;26.22;34.79;97877.34;5054803;28;20181;-73
2023/06/12 11:10:56;;;;;;;6.07;4.47;;;;;;;26.17;35.08;97877.50;5054836;28;20201;-73
2023/06/12 11:13:27;;;;;;;4.68;4.28;;;;;;;26.10;35.45;97869.81;5054236;28;20215;-73
2023/06/12 11:15:54;;;;;;;4.72;4.38;;;;;;;26.09;34.46;97861.97;5054714;28;20236;-74
2023/06/12 11:18:21;;;;;;;4.53;4.13;;;;;;;25.89;35.97;97868.88;5054397;28;20323;-73
2023/06/12 11:20:55;;;;;;;4.97;4.05;;;;;;;25.52;35.63;97857.81;5054295;28;20216;-73
2023/06/12 11:23:28;;;;;;;4.85;4.20;;;;;;;25.78;35.08;97864.09;5054171;28;20214;-73
2023/06/12 11:25:57;;;;;;;4.43;4.03;;;;;;;25.89;33.44;97866.16;5053810;28;20229;-73
2023/06/12 11:28:24;;;;;;;4.55;4.07;;;;;;;25.89;33.26;97874.31;5054309;28;20198;-73
2023/06/12 11:30:52;;;;;;;4.30;3.90;;;;;;;26.04;33.88;97870.31;5054131;28;20587;-73
2023/06/12 11:33:19;;;;;;;5.45;4.20;;;;;;;26.08;34.09;97860.38;5054309;28;20237;-73
2023/06/12 11:35:47;;;;;;;6.05;4.72;;;;;;;26.28;33.95;97862.44;5053945;28;20739;-73
2023/06/12 11:38:14;;;;;;;6.05;4.28;;;;;;;26.22;35.08;97852.81;5054445;28;20256;-73